createdAt,value
2022-12-31T00:01:01.087Z,100086.84
2022-12-31T00:03:34.926Z,100097.08
2022-12-31T00:06:18.226Z,100097.36
2022-12-31T00:08:51.432Z,100089.17
2022-12-31T00:11:24.896Z,100086.15
2022-12-31T00:13:57.875Z,100078.69
2022-12-31T00:16:32.523Z,100076.21
2022-12-31T00:19:03.564Z,100067.90
2022-12-31T00:21:37.044Z,100064.77
2022-12-31T00:24:12.289Z,100075.41
2022-12-31T00:26:47.487Z,100072.73
2022-12-31T00:29:20.229Z,100069.48
2022-12-31T00:31:52.768Z,100048.80
2022-12-31T00:34:25.248Z,100053.56
2022-12-31T00:36:57.810Z,100054.02
2022-12-31T00:39:30.558Z,100058.27
2022-12-31T00:42:03.145Z,100049.92
2022-12-31T00:44:35.851Z,100054.45
2022-12-31T00:47:08.335Z,100042.40
2022-12-31T00:49:42.258Z,100058.92
2022-12-31T00:52:15.961Z,100066.54
2022-12-31T00:54:48.542Z,100072.79
2022-12-31T00:57:21.022Z,100083.56
2022-12-31T00:59:53.313Z,100081.55
2022-12-31T01:02:25.814Z,100082.86
2022-12-31T01:04:58.470Z,100072.98
2022-12-31T01:07:30.838Z,100066.98
2022-12-31T01:10:03.690Z,100065.15
2022-12-31T01:12:38.219Z,100068.27
2022-12-31T01:15:12.017Z,100070.45
2022-12-31T01:17:44.324Z,100075.29
2022-12-31T01:20:16.706Z,100077.98
2022-12-31T01:22:49.173Z,100078.95
2022-12-31T01:25:21.743Z,100075.30
2022-12-31T01:27:54.804Z,100075.33
2022-12-31T01:30:27.483Z,100075.42
2022-12-31T01:33:00.137Z,100076.13
2022-12-31T01:35:35.015Z,100075.21
2022-12-31T01:38:07.650Z,100081.06
2022-12-31T01:40:42.041Z,100081.34
2022-12-31T01:43:19.157Z,100073.08
2022-12-31T01:45:55.828Z,100073.30
2022-12-31T01:48:29.331Z,100072.50
2022-12-31T01:51:02.365Z,100084.68
2022-12-31T01:53:37.294Z,100081.05
2022-12-31T01:56:13.288Z,100077.83
2022-12-31T01:58:48.881Z,100080.23
2022-12-31T02:01:27.004Z,100085.02
2022-12-31T02:04:02.030Z,100086.68
2022-12-31T02:06:36.596Z,100093.55
2022-12-31T02:09:10.341Z,100077.00
2022-12-31T02:11:43.271Z,100092.27
2022-12-31T02:14:18.639Z,100085.05
2022-12-31T02:16:58.814Z,100083.67
2022-12-31T02:20:15.170Z,100039.31
2022-12-31T02:22:53.964Z,100072.44
2022-12-31T02:25:31.132Z,100076.41
2022-12-31T02:28:14.897Z,100071.07
2022-12-31T02:30:49.279Z,100078.39
2022-12-31T02:33:24.019Z,100078.33
2022-12-31T02:35:56.597Z,100080.30
2022-12-31T02:38:30.172Z,100076.52
2022-12-31T02:41:01.705Z,100078.09
2022-12-31T02:43:35.145Z,100078.05
2022-12-31T02:46:09.794Z,100083.11
2022-12-31T02:48:45.639Z,100089.06
2022-12-31T02:51:31.221Z,100091.40
2022-12-31T02:54:09.035Z,100086.23
2022-12-31T02:56:43.961Z,100075.42
2022-12-31T02:59:33.497Z,100095.20
2022-12-31T03:02:16.388Z,100103.27
2022-12-31T03:04:50.395Z,100109.70
2022-12-31T03:07:23.266Z,100110.87
2022-12-31T03:09:54.465Z,100094.72
2022-12-31T03:12:44.534Z,100085.91
2022-12-31T03:15:22.651Z,100098.65
2022-12-31T03:17:58.791Z,100116.17
2022-12-31T03:20:48.593Z,100107.33
2022-12-31T03:23:21.769Z,100113.09
2022-12-31T03:25:53.492Z,100095.38
2022-12-31T03:28:26.078Z,100106.27
2022-12-31T03:30:58.357Z,100107.15
2022-12-31T03:33:31.415Z,100114.39
2022-12-31T03:36:05.240Z,100108.55
2022-12-31T03:38:35.965Z,100104.59
2022-12-31T03:41:08.471Z,100090.00
2022-12-31T03:43:40.034Z,100107.02
2022-12-31T03:46:13.062Z,100109.64
2022-12-31T03:48:45.286Z,100103.02
2022-12-31T03:51:16.940Z,100102.15
2022-12-31T03:53:47.892Z,100102.56
2022-12-31T03:56:21.345Z,100104.86
2022-12-31T03:58:52.613Z,100105.91
2022-12-31T04:01:26.735Z,100108.13
2022-12-31T04:03:57.684Z,100105.73
2022-12-31T04:06:28.438Z,100104.47
2022-12-31T04:08:59.278Z,100107.31
2022-12-31T04:11:30.035Z,100115.57
2022-12-31T04:14:00.952Z,100127.30
2022-12-31T04:16:32.396Z,100131.83
2022-12-31T04:19:03.734Z,100133.52
2022-12-31T04:21:35.446Z,100131.75
2022-12-31T04:24:07.157Z,100134.11
2022-12-31T04:26:40.508Z,100134.17
2022-12-31T04:29:12.350Z,100134.09
2022-12-31T04:31:43.264Z,100134.58
2022-12-31T04:34:14.173Z,100130.36
2022-12-31T04:36:45.364Z,100124.34
2022-12-31T04:39:16.190Z,100121.33
2022-12-31T04:41:47.219Z,100119.56
2022-12-31T04:44:18.635Z,100118.71
2022-12-31T04:46:49.408Z,100113.33
2022-12-31T04:49:20.886Z,100113.70
2022-12-31T04:51:52.767Z,100117.07
2022-12-31T04:54:23.769Z,100120.05
2022-12-31T04:56:54.565Z,100127.30
2022-12-31T04:59:25.544Z,100124.31
2022-12-31T05:01:56.704Z,100119.66
2022-12-31T05:04:28.107Z,100112.09
2022-12-31T05:06:58.989Z,100117.37
2022-12-31T05:09:31.150Z,100120.74
2022-12-31T05:12:02.003Z,100119.48
2022-12-31T05:14:33.003Z,100113.29
2022-12-31T05:17:04.112Z,100121.19
2022-12-31T05:19:35.849Z,100114.64
2022-12-31T05:22:24.562Z,100111.93
2022-12-31T05:24:55.433Z,100118.36
2022-12-31T05:27:26.385Z,100119.99
2022-12-31T05:29:57.379Z,100103.59
2022-12-31T05:32:28.255Z,100124.40
2022-12-31T05:34:59.874Z,100129.73
2022-12-31T05:37:31.927Z,100129.91
2022-12-31T05:40:03.012Z,100108.66
2022-12-31T05:42:36.469Z,100129.60
2022-12-31T05:45:08.137Z,100126.16
2022-12-31T05:47:38.813Z,100118.06
2022-12-31T05:50:10.226Z,100117.48
2022-12-31T05:52:47.159Z,100105.92
2022-12-31T05:55:18.455Z,100126.20
2022-12-31T05:57:49.261Z,100136.27
2022-12-31T06:00:20.667Z,100138.33
2022-12-31T06:02:51.649Z,100149.53
2022-12-31T06:05:26.115Z,100145.47
2022-12-31T06:07:57.421Z,100137.80
2022-12-31T06:10:28.993Z,100131.73
2022-12-31T06:13:00.577Z,100127.77
2022-12-31T06:15:31.643Z,100126.80
2022-12-31T06:18:02.612Z,100129.23
2022-12-31T06:20:33.663Z,100130.31
2022-12-31T06:23:09.172Z,100142.72
2022-12-31T06:25:39.925Z,100145.14
2022-12-31T06:28:17.957Z,100152.34
2022-12-31T06:30:50.900Z,100158.48
2022-12-31T06:33:22.109Z,100156.13
2022-12-31T06:35:56.154Z,100162.10
2022-12-31T06:38:27.027Z,100164.22
2022-12-31T06:40:58.502Z,100151.27
2022-12-31T06:43:29.264Z,100128.59
2022-12-31T06:46:02.679Z,100133.80
2022-12-31T06:48:33.492Z,100135.08
2022-12-31T06:51:08.603Z,100130.20
2022-12-31T06:53:42.959Z,100112.73
2022-12-31T06:56:17.955Z,100123.19
2022-12-31T06:58:49.738Z,100118.12
2022-12-31T07:01:30.639Z,100113.29
2022-12-31T07:04:04.861Z,100106.39
2022-12-31T07:06:40.396Z,100112.61
2022-12-31T07:09:17.023Z,100110.72
2022-12-31T07:11:55.536Z,100124.33
2022-12-31T07:14:31.558Z,100105.63
2022-12-31T07:17:08.046Z,100117.58
2022-12-31T07:19:46.191Z,100112.35
2022-12-31T07:22:18.303Z,100112.80
2022-12-31T07:24:49.656Z,100103.26
2022-12-31T07:27:27.564Z,100127.20
2022-12-31T07:30:05.000Z,100133.19
2022-12-31T07:32:45.173Z,100140.69
2022-12-31T07:35:20.096Z,100141.02
2022-12-31T07:37:55.189Z,100146.68
2022-12-31T07:40:31.296Z,100152.04
2022-12-31T07:43:06.738Z,100150.54
2022-12-31T07:45:42.191Z,100152.58
2022-12-31T07:48:19.764Z,100151.66
2022-12-31T07:50:51.264Z,100148.14
2022-12-31T07:53:22.898Z,100153.54
2022-12-31T07:55:55.856Z,100149.25
2022-12-31T07:58:31.803Z,100149.67
2022-12-31T08:01:03.183Z,100147.20
2022-12-31T08:03:45.273Z,100144.59
2022-12-31T08:06:20.018Z,100142.87
2022-12-31T08:08:54.744Z,100135.59
2022-12-31T08:11:31.790Z,100130.59
2022-12-31T08:14:07.416Z,100129.12
2022-12-31T08:16:38.863Z,100121.27
2022-12-31T08:19:16.068Z,100121.44
2022-12-31T08:21:50.179Z,100116.98
2022-12-31T08:24:27.203Z,100106.20
2022-12-31T08:27:03.228Z,100107.82
2022-12-31T08:29:41.323Z,100112.10
2022-12-31T08:32:18.126Z,100112.51
2022-12-31T08:34:52.878Z,100118.15
2022-12-31T08:37:27.756Z,100111.48
2022-12-31T08:40:04.732Z,100112.73
2022-12-31T08:42:39.270Z,100108.67
2022-12-31T08:45:15.486Z,100115.06
2022-12-31T08:47:50.171Z,100111.77
2022-12-31T08:50:23.395Z,100093.43
2022-12-31T08:52:54.841Z,100114.56
2022-12-31T08:55:26.724Z,100116.42
2022-12-31T08:58:04.213Z,100112.87
2022-12-31T09:00:36.316Z,100114.23
2022-12-31T09:03:14.339Z,100111.16
2022-12-31T09:05:54.178Z,100120.21
2022-12-31T09:08:29.859Z,100116.78
2022-12-31T09:11:05.354Z,100112.30
2022-12-31T09:13:43.240Z,100106.05
2022-12-31T09:16:18.639Z,100090.42
2022-12-31T09:18:49.550Z,100087.79
2022-12-31T09:21:20.639Z,100084.91
2022-12-31T09:23:53.645Z,100095.55
2022-12-31T09:26:35.044Z,100103.30
2022-12-31T09:29:11.576Z,100102.52
2022-12-31T09:31:50.080Z,100108.60
2022-12-31T09:34:25.129Z,100107.55
2022-12-31T09:36:58.862Z,100084.40
2022-12-31T09:39:34.239Z,100086.17
2022-12-31T09:42:21.674Z,100071.45
2022-12-31T09:45:08.467Z,100074.40
2022-12-31T09:48:00.455Z,100079.60
2022-12-31T09:50:48.726Z,100085.08
2022-12-31T09:53:37.220Z,100076.55
2022-12-31T09:56:13.077Z,100080.16
2022-12-31T09:58:46.806Z,100064.05
2022-12-31T10:01:25.805Z,100082.26
2022-12-31T10:04:10.042Z,100074.61
2022-12-31T10:06:47.824Z,100065.67
2022-12-31T10:09:35.623Z,100084.55
2022-12-31T10:12:25.012Z,100087.27
2022-12-31T10:15:11.407Z,100089.10
2022-12-31T10:17:50.111Z,100083.70
2022-12-31T10:20:35.919Z,100082.27
2022-12-31T10:23:31.858Z,100082.95
2022-12-31T10:26:12.082Z,100077.47
2022-12-31T10:28:51.198Z,100070.05
2022-12-31T10:31:32.597Z,100060.08
2022-12-31T10:34:13.847Z,100056.23
2022-12-31T10:36:59.545Z,100044.70
2022-12-31T10:39:39.923Z,100044.80
2022-12-31T10:42:36.118Z,100044.91
2022-12-31T10:45:35.494Z,100038.45
2022-12-31T10:51:23.689Z,100010.34
2022-12-31T10:54:10.643Z,100023.55
2022-12-31T10:57:08.956Z,100017.02
2022-12-31T11:00:02.355Z,100009.36
2022-12-31T11:02:58.364Z,100008.19
2022-12-31T11:05:42.821Z,100013.52
2022-12-31T11:08:20.955Z,100011.41
2022-12-31T11:11:01.685Z,100010.05
2022-12-31T11:13:48.058Z,100000.95
2022-12-31T11:16:25.176Z,100011.16
2022-12-31T11:19:00.231Z,100010.45
2022-12-31T11:21:41.457Z,100013.08
2022-12-31T11:24:19.864Z,100016.84
2022-12-31T11:26:59.195Z,100018.43
2022-12-31T11:29:39.762Z,100015.06
2022-12-31T11:32:20.388Z,99996.85
2022-12-31T11:35:19.894Z,100011.46
2022-12-31T11:37:51.709Z,100014.09
2022-12-31T11:40:38.272Z,100010.30
2022-12-31T11:43:19.929Z,100009.60
2022-12-31T11:46:00.478Z,100012.80
2022-12-31T11:48:35.555Z,99999.39
2022-12-31T11:51:12.113Z,99999.39
2022-12-31T11:53:51.604Z,100005.70
2022-12-31T11:56:26.168Z,100006.42
2022-12-31T11:58:57.643Z,100013.21
2022-12-31T12:01:32.388Z,100013.46
2022-12-31T12:04:06.683Z,100011.30
2022-12-31T12:06:42.905Z,100012.64
2022-12-31T12:09:16.780Z,100011.21
2022-12-31T12:11:59.095Z,100006.73
2022-12-31T12:14:33.452Z,100008.63
2022-12-31T12:17:05.867Z,99994.08
2022-12-31T12:19:37.433Z,100008.48
2022-12-31T12:22:15.249Z,100010.59
2022-12-31T12:24:54.483Z,100008.48
2022-12-31T12:27:31.292Z,100017.55
2022-12-31T12:30:10.346Z,100017.37
2022-12-31T12:32:42.057Z,100018.10
2022-12-31T12:35:21.140Z,100022.70
2022-12-31T12:38:04.075Z,100023.63
2022-12-31T12:40:35.907Z,100035.41
2022-12-31T12:43:07.553Z,100041.41
2022-12-31T12:45:45.168Z,100040.27
2022-12-31T12:48:21.400Z,100034.83
2022-12-31T12:50:53.721Z,100029.54
2022-12-31T12:53:38.892Z,100025.46
2022-12-31T12:56:18.885Z,100027.81
2022-12-31T12:58:55.789Z,100025.95
2022-12-31T13:01:29.738Z,100027.34
2022-12-31T13:04:34.131Z,100025.08
2022-12-31T13:07:16.277Z,100022.91
2022-12-31T13:09:58.818Z,100015.75
2022-12-31T13:12:56.839Z,100008.40
2022-12-31T13:15:33.616Z,100014.96
2022-12-31T13:18:13.796Z,100013.44
2022-12-31T13:20:48.646Z,100015.88
2022-12-31T13:23:24.629Z,100008.58
2022-12-31T13:26:00.026Z,100012.42
2022-12-31T13:28:33.695Z,100021.36
2022-12-31T13:31:07.355Z,100016.31
2022-12-31T13:33:41.071Z,100014.85
2022-12-31T13:36:15.346Z,99996.52
2022-12-31T13:38:48.179Z,100019.20
2022-12-31T13:41:22.434Z,100024.66
2022-12-31T13:43:58.177Z,100030.58
2022-12-31T13:46:34.296Z,100028.24
2022-12-31T13:49:15.934Z,100037.09
2022-12-31T13:51:54.564Z,100046.95
2022-12-31T13:54:32.359Z,100045.68
2022-12-31T13:57:05.653Z,100043.31
2022-12-31T13:59:38.943Z,100044.58
2022-12-31T14:02:24.763Z,100044.55
2022-12-31T14:05:02.285Z,100050.99
2022-12-31T14:07:45.331Z,100049.58
2022-12-31T14:10:18.427Z,100043.92
2022-12-31T14:12:53.489Z,100043.73
2022-12-31T14:15:28.041Z,100051.27
2022-12-31T14:18:05.026Z,100051.74
2022-12-31T14:20:43.607Z,100050.95
2022-12-31T14:23:19.536Z,100060.38
2022-12-31T14:25:54.622Z,100064.92
2022-12-31T14:28:34.355Z,100063.08
2022-12-31T14:31:16.107Z,100069.64
2022-12-31T14:33:52.155Z,100060.45
2022-12-31T14:36:28.865Z,100066.20
2022-12-31T14:39:05.878Z,100074.12
2022-12-31T14:41:44.917Z,100065.41
2022-12-31T14:44:25.745Z,100075.95
2022-12-31T14:47:04.847Z,100077.05
2022-12-31T14:50:10.896Z,100079.13
2022-12-31T14:53:11.882Z,100086.87
2022-12-31T14:56:30.692Z,100103.04
2022-12-31T14:59:26.753Z,100105.05
2022-12-31T15:02:05.513Z,100110.08
2022-12-31T15:04:46.219Z,100107.20
2022-12-31T15:07:28.076Z,100108.80
2022-12-31T15:10:11.740Z,100101.52
2022-12-31T15:12:58.694Z,100111.61
2022-12-31T15:15:50.870Z,100110.35
2022-12-31T15:18:57.012Z,100108.12
2022-12-31T15:24:50.648Z,100113.64
2022-12-31T15:27:31.555Z,100121.39
2022-12-31T15:30:04.191Z,100123.95
2022-12-31T15:32:40.814Z,100123.87
2022-12-31T15:38:31.210Z,100114.51
2022-12-31T15:41:13.497Z,100125.02
2022-12-31T15:43:48.471Z,100127.97
2022-12-31T15:46:21.431Z,100130.83
2022-12-31T15:49:04.233Z,100119.11
2022-12-31T15:51:43.514Z,100141.55
2022-12-31T15:54:23.149Z,100138.34
2022-12-31T15:56:56.073Z,100142.98
2022-12-31T15:59:29.066Z,100146.91
2022-12-31T16:02:04.128Z,100151.30
2022-12-31T16:04:44.781Z,100147.23
2022-12-31T16:07:19.078Z,100143.57
2022-12-31T16:09:53.617Z,100158.92
2022-12-31T16:12:32.696Z,100174.98
2022-12-31T16:15:06.446Z,100170.11
2022-12-31T16:17:39.902Z,100177.23
2022-12-31T16:20:26.973Z,100176.13
2022-12-31T16:23:00.431Z,100178.91
2022-12-31T16:25:33.510Z,100173.23
2022-12-31T16:28:06.069Z,100174.52
2022-12-31T16:30:38.824Z,100174.74
2022-12-31T16:33:14.955Z,100177.48
2022-12-31T16:35:56.467Z,100180.91
2022-12-31T16:38:33.651Z,100180.66
2022-12-31T16:41:19.833Z,100181.70
2022-12-31T16:43:53.081Z,100187.87
2022-12-31T16:46:28.001Z,100195.77
2022-12-31T16:49:03.772Z,100200.58
2022-12-31T16:51:38.972Z,100199.70
2022-12-31T16:54:19.441Z,100207.14
2022-12-31T16:56:53.506Z,100207.14
2022-12-31T16:59:52.791Z,100213.05
2022-12-31T17:02:33.506Z,100217.61
2022-12-31T17:05:20.395Z,100213.46
2022-12-31T17:07:51.866Z,100214.65
2022-12-31T17:10:46.981Z,100217.77
2022-12-31T17:13:27.752Z,100218.18
2022-12-31T17:16:00.689Z,100221.45
2022-12-31T17:18:36.980Z,100228.40
2022-12-31T17:21:14.600Z,100228.16
2022-12-31T17:23:54.814Z,100234.41
2022-12-31T17:26:27.993Z,100234.23
2022-12-31T17:29:02.373Z,100233.85
2022-12-31T17:31:39.936Z,100205.78
2022-12-31T17:34:25.727Z,100217.45
2022-12-31T17:37:18.741Z,100220.66
2022-12-31T17:39:51.482Z,100230.17
2022-12-31T17:42:31.617Z,100226.41
2022-12-31T17:45:04.269Z,100236.24
2022-12-31T17:47:40.169Z,100244.71
2022-12-31T17:50:26.176Z,100242.95
2022-12-31T17:53:01.049Z,100240.32
2022-12-31T17:55:32.413Z,100248.16
2022-12-31T17:58:05.129Z,100253.12
2022-12-31T18:00:38.265Z,100255.11
2022-12-31T18:03:10.245Z,100255.42
2022-12-31T18:05:41.901Z,100246.55
2022-12-31T18:08:13.348Z,100249.19
2022-12-31T18:10:45.532Z,100252.14
2022-12-31T18:13:18.878Z,100254.13
2022-12-31T18:15:49.842Z,100250.13
2022-12-31T18:18:25.467Z,100251.64
2022-12-31T18:21:00.174Z,100245.48
2022-12-31T18:23:32.473Z,100242.38
2022-12-31T18:26:05.153Z,100236.00
2022-12-31T18:28:36.905Z,100232.47
2022-12-31T18:31:09.754Z,100227.60
2022-12-31T18:33:43.414Z,100229.69
2022-12-31T18:36:15.310Z,100229.91
2022-12-31T18:38:46.622Z,100218.33
2022-12-31T18:41:20.508Z,100216.73
2022-12-31T18:43:52.235Z,100214.02
2022-12-31T18:46:24.640Z,100215.94
2022-12-31T18:48:55.902Z,100222.89
2022-12-31T18:51:32.109Z,100227.30
2022-12-31T18:54:06.994Z,100230.95
2022-12-31T18:56:41.843Z,100222.98
2022-12-31T18:59:16.345Z,100227.85
2022-12-31T19:01:48.570Z,100224.65
2022-12-31T19:04:27.560Z,100223.61
2022-12-31T19:07:01.022Z,100232.89
2022-12-31T19:09:51.414Z,100242.88
2022-12-31T19:12:24.887Z,100245.60
2022-12-31T19:14:56.592Z,100242.16
2022-12-31T19:17:28.238Z,100249.11
2022-12-31T19:20:05.062Z,100248.33
2022-12-31T19:22:37.653Z,100250.80
2022-12-31T19:25:16.632Z,100250.31
2022-12-31T19:27:49.140Z,100253.98
2022-12-31T19:30:25.319Z,100242.00
2022-12-31T19:32:57.828Z,100255.11
2022-12-31T19:35:30.335Z,100255.74
2022-12-31T19:38:02.680Z,100247.60
2022-12-31T19:40:34.720Z,100249.29
2022-12-31T19:43:05.856Z,100252.55
2022-12-31T19:45:37.678Z,100255.42
2022-12-31T19:48:12.024Z,100256.94
2022-12-31T19:50:44.776Z,100255.19
2022-12-31T19:53:17.294Z,100237.83
2022-12-31T19:55:49.239Z,100262.72
2022-12-31T19:58:22.190Z,100255.26
2022-12-31T20:00:58.182Z,100249.35
2022-12-31T20:03:34.903Z,100246.73
2022-12-31T20:06:07.616Z,100244.32
2022-12-31T20:08:39.995Z,100242.73
2022-12-31T20:11:11.896Z,100239.99
2022-12-31T20:13:44.489Z,100245.60
2022-12-31T20:16:18.442Z,100244.23
2022-12-31T20:18:52.526Z,100250.40
2022-12-31T20:21:26.281Z,100245.75
2022-12-31T20:24:00.098Z,100249.67
2022-12-31T20:26:32.646Z,100229.61
2022-12-31T20:29:03.972Z,100249.20
2022-12-31T20:31:35.036Z,100253.19
2022-12-31T20:34:07.240Z,100256.39
2022-12-31T20:36:38.748Z,100256.39
2022-12-31T20:39:10.512Z,100254.63
2022-12-31T20:41:41.728Z,100258.80
2022-12-31T20:44:14.190Z,100266.08
2022-12-31T20:46:45.527Z,100266.54
2022-12-31T20:49:31.151Z,100264.55
2022-12-31T20:52:13.603Z,100261.83
2022-12-31T20:54:45.140Z,100267.10
2022-12-31T20:57:17.092Z,100272.46
2022-12-31T20:59:49.895Z,100268.55
2022-12-31T21:02:29.503Z,100270.70
2022-12-31T21:05:12.230Z,100267.59
2022-12-31T21:07:44.056Z,100262.95
2022-12-31T21:10:15.273Z,100253.35
2022-12-31T21:12:53.470Z,100252.56
2022-12-31T21:15:26.904Z,100259.04
2022-12-31T21:18:00.583Z,100258.48
2022-12-31T21:20:33.571Z,100260.64
2022-12-31T21:23:04.562Z,100266.80
2022-12-31T21:25:36.951Z,100259.44
2022-12-31T21:28:08.591Z,100261.02
2022-12-31T21:30:41.669Z,100254.95
2022-12-31T21:33:14.387Z,100258.39
2022-12-31T21:35:53.254Z,100257.67
2022-12-31T21:38:24.945Z,100252.39
2022-12-31T21:40:56.648Z,100261.75
2022-12-31T21:43:27.601Z,100265.91
2022-12-31T21:46:11.958Z,100261.67
2022-12-31T21:48:43.930Z,100271.27
2022-12-31T21:51:16.972Z,100251.83
2022-12-31T21:53:48.789Z,100266.61
2022-12-31T21:56:22.230Z,100268.86
2022-12-31T21:59:14.020Z,100276.70
2022-12-31T22:02:03.275Z,100277.64
2022-12-31T22:07:25.772Z,100270.55
2022-12-31T22:09:57.572Z,100271.27
2022-12-31T22:12:28.585Z,100276.23
2022-12-31T22:15:15.624Z,100274.45
2022-12-31T22:17:48.736Z,100272.21
2022-12-31T22:20:29.355Z,100274.61
2022-12-31T22:23:01.929Z,100271.10
2022-12-31T22:25:34.653Z,100264.77
2022-12-31T22:30:59.545Z,100261.49
2022-12-31T22:33:33.658Z,100257.27
2022-12-31T22:36:06.634Z,100263.67
2022-12-31T22:38:38.411Z,100267.04
2022-12-31T22:41:10.940Z,100241.13
2022-12-31T22:43:43.197Z,100271.03
2022-12-31T22:46:15.373Z,100266.88
2022-12-31T22:48:47.015Z,100260.55
2022-12-31T22:51:19.124Z,100262.73
2022-12-31T22:53:51.225Z,100259.35
2022-12-31T22:56:23.303Z,100258.40
2022-12-31T22:58:54.512Z,100262.42
2022-12-31T23:01:26.891Z,100251.30
2022-12-31T23:03:59.906Z,100267.70
2022-12-31T23:06:33.267Z,100272.34
2022-12-31T23:09:22.683Z,100251.95
2022-12-31T23:11:54.084Z,100273.62
2022-12-31T23:14:42.969Z,100276.75
2022-12-31T23:17:34.573Z,100277.61
2022-12-31T23:20:26.454Z,100281.46
2022-12-31T23:23:13.526Z,100284.89
2022-12-31T23:25:45.290Z,100280.96
2022-12-31T23:28:18.236Z,100288.42
2022-12-31T23:30:51.665Z,100292.81
2022-12-31T23:33:27.149Z,100289.23
2022-12-31T23:36:08.691Z,100288.80
2022-12-31T23:38:40.864Z,100293.86
2022-12-31T23:41:16.496Z,100297.77
2022-12-31T23:43:48.640Z,100298.73
2022-12-31T23:46:32.026Z,100298.09
2022-12-31T23:49:04.322Z,100301.30
2022-12-31T23:51:37.701Z,100295.70
2022-12-31T23:54:13.527Z,100293.34
2022-12-31T23:56:46.000Z,100293.66
2022-12-31T23:59:19.251Z,100291.42
